createdAt,value
2022-11-04T00:00:01.245Z,979.93
2022-11-04T00:01:01.323Z,979.90
2022-11-04T00:02:01.305Z,980.04
2022-11-04T00:03:01.219Z,980.02
2022-11-04T00:04:01.211Z,980.05
2022-11-04T00:05:01.217Z,979.99
2022-11-04T00:06:01.197Z,980.07
2022-11-04T00:07:01.182Z,980.05
2022-11-04T00:08:01.178Z,980.05
2022-11-04T00:09:01.162Z,980.09
2022-11-04T00:10:01.172Z,980.02
2022-11-04T00:11:01.165Z,980.08
2022-11-04T00:12:01.142Z,980.02
2022-11-04T00:13:01.140Z,980.05
2022-11-04T00:14:01.157Z,980.01
2022-11-04T00:15:01.684Z,980.09
2022-11-04T00:16:01.124Z,980.14
2022-11-04T00:17:01.104Z,980.08
2022-11-04T00:18:01.108Z,980.09
2022-11-04T00:19:01.099Z,980.10
2022-11-04T00:20:01.084Z,980.15
2022-11-04T00:21:01.085Z,980.07
2022-11-04T00:22:01.083Z,980.21
2022-11-04T00:23:01.067Z,980.14
2022-11-04T00:24:01.336Z,980.16
2022-11-04T00:25:01.051Z,980.20
2022-11-04T00:26:01.048Z,980.13
2022-11-04T00:27:01.033Z,980.19
2022-11-04T00:28:01.029Z,980.19
2022-11-04T00:29:01.013Z,980.20
2022-11-04T00:30:01.065Z,980.22
2022-11-04T00:31:01.016Z,980.36
2022-11-04T00:32:00.993Z,980.28
2022-11-04T00:33:00.988Z,980.44
2022-11-04T00:34:00.984Z,980.31
2022-11-04T00:35:01.680Z,980.37
2022-11-04T00:36:00.967Z,980.47
2022-11-04T00:37:00.951Z,980.40
2022-11-04T00:38:00.945Z,980.47
2022-11-04T00:39:00.944Z,980.51
2022-11-04T00:40:00.935Z,980.61
2022-11-04T00:41:00.943Z,980.60
2022-11-04T00:42:00.914Z,980.61
2022-11-04T00:43:01.719Z,980.59
2022-11-04T00:44:00.900Z,980.62
2022-11-04T00:45:00.900Z,980.48
2022-11-04T00:46:01.263Z,980.53
2022-11-04T00:47:00.878Z,980.50
2022-11-04T00:48:00.878Z,980.66
2022-11-04T00:49:00.880Z,980.68
2022-11-04T00:50:00.868Z,980.73
2022-11-04T00:51:00.899Z,980.68
2022-11-04T00:52:00.845Z,980.69
2022-11-04T00:53:00.843Z,980.71
2022-11-04T00:54:00.835Z,980.69
2022-11-04T00:55:00.822Z,980.71
2022-11-04T00:56:00.816Z,980.70
2022-11-04T00:57:00.824Z,980.73
2022-11-04T00:58:00.807Z,980.69
2022-11-04T00:59:00.789Z,980.55
2022-11-04T01:00:00.793Z,980.70
2022-11-04T01:01:00.925Z,980.80
2022-11-04T01:02:01.268Z,980.69
2022-11-04T01:03:00.767Z,980.75
2022-11-04T01:04:00.758Z,980.79
2022-11-04T01:05:00.776Z,980.76
2022-11-04T01:06:00.751Z,980.75
2022-11-04T01:07:00.733Z,980.84
2022-11-04T01:08:00.732Z,980.91
2022-11-04T01:09:00.718Z,980.90
2022-11-04T01:10:00.711Z,980.91
2022-11-04T01:11:00.711Z,981.00
2022-11-04T01:12:00.709Z,981.03
2022-11-04T01:13:00.696Z,981.02
2022-11-04T01:14:00.685Z,981.07
2022-11-04T01:15:00.674Z,981.13
2022-11-04T01:16:00.681Z,981.07
2022-11-04T01:17:00.690Z,981.06
2022-11-04T01:18:00.691Z,981.05
2022-11-04T01:19:00.668Z,981.05
2022-11-04T01:20:00.636Z,981.02
2022-11-04T01:21:00.641Z,981.03
2022-11-04T01:22:00.628Z,981.04
2022-11-04T01:23:00.613Z,981.04
2022-11-04T01:24:00.617Z,981.01
2022-11-04T01:25:00.774Z,980.97
2022-11-04T01:26:00.592Z,981.01
2022-11-04T01:27:00.615Z,981.04
2022-11-04T01:28:00.580Z,981.04
2022-11-04T01:29:00.568Z,981.04
2022-11-04T01:30:00.560Z,981.03
2022-11-04T01:31:00.585Z,981.00
2022-11-04T01:32:00.543Z,980.99
2022-11-04T01:33:00.543Z,980.99
2022-11-04T01:34:00.558Z,980.96
2022-11-04T01:35:00.527Z,981.00
2022-11-04T01:36:00.528Z,980.97
2022-11-04T01:37:00.528Z,980.95
2022-11-04T01:38:00.506Z,980.93
2022-11-04T01:39:02.133Z,980.96
2022-11-04T01:40:00.484Z,980.97
2022-11-04T01:41:00.486Z,980.97
2022-11-04T01:42:00.557Z,980.93
2022-11-04T01:43:00.464Z,980.98
2022-11-04T01:44:00.463Z,980.92
2022-11-04T01:45:00.522Z,980.84
2022-11-04T01:46:00.445Z,980.84
2022-11-04T01:47:00.450Z,980.89
2022-11-04T01:48:00.454Z,980.79
2022-11-04T01:49:00.421Z,980.82
2022-11-04T01:50:00.445Z,980.77
2022-11-04T01:51:00.410Z,980.72
2022-11-04T01:52:00.410Z,980.76
2022-11-04T01:53:00.401Z,980.70
2022-11-04T01:54:00.390Z,980.70
2022-11-04T01:55:00.385Z,980.74
2022-11-04T01:56:00.375Z,980.79
2022-11-04T01:57:00.366Z,980.80
2022-11-04T01:58:01.859Z,980.82
2022-11-04T01:59:00.368Z,980.81
2022-11-04T02:00:00.347Z,980.84
2022-11-04T02:01:00.375Z,980.85
2022-11-04T02:02:00.450Z,980.86
2022-11-04T02:03:00.319Z,980.91
2022-11-04T02:04:00.725Z,980.95
2022-11-04T02:05:00.322Z,980.97
2022-11-04T02:06:00.320Z,980.94
2022-11-04T02:07:00.358Z,981.02
2022-11-04T02:08:00.278Z,980.97
2022-11-04T02:09:00.341Z,980.92
2022-11-04T02:10:01.117Z,980.95
2022-11-04T02:11:00.255Z,980.99
2022-11-04T02:12:00.256Z,981.01
2022-11-04T02:13:00.262Z,981.02
2022-11-04T02:14:00.237Z,981.04
2022-11-04T02:15:00.244Z,981.07
2022-11-04T02:16:00.237Z,981.10
2022-11-04T02:17:00.213Z,981.09
2022-11-04T02:18:00.216Z,981.08
2022-11-04T02:19:00.201Z,981.06
2022-11-04T02:20:00.202Z,981.01
2022-11-04T02:21:00.921Z,980.97
2022-11-04T02:22:00.203Z,981.03
2022-11-04T02:23:00.179Z,981.08
2022-11-04T02:24:00.167Z,981.11
2022-11-04T02:25:00.163Z,981.12
2022-11-04T02:26:00.161Z,981.19
2022-11-04T02:27:00.160Z,981.20
2022-11-04T02:28:00.164Z,981.14
2022-11-04T02:29:00.136Z,981.17
2022-11-04T02:30:00.159Z,981.17
2022-11-04T02:31:00.173Z,981.22
2022-11-04T02:32:00.115Z,981.19
2022-11-04T02:33:00.119Z,981.31
2022-11-04T02:34:00.099Z,981.23
2022-11-04T02:35:00.106Z,981.30
2022-11-04T02:36:00.105Z,981.44
2022-11-04T02:37:00.076Z,981.45
2022-11-04T02:38:00.792Z,981.46
2022-11-04T02:39:00.056Z,981.52
2022-11-04T02:40:00.058Z,981.60
2022-11-04T02:41:00.064Z,981.60
2022-11-04T02:42:00.039Z,981.66
2022-11-04T02:43:00.038Z,981.68
2022-11-04T02:44:00.042Z,981.58
2022-11-04T02:45:00.016Z,981.70
2022-11-04T02:46:00.012Z,981.71
2022-11-04T02:47:00.002Z,981.75
2022-11-04T02:47:59.996Z,981.70
2022-11-04T02:48:59.987Z,981.71
2022-11-04T02:50:00.770Z,981.71
2022-11-04T02:50:59.971Z,981.74
2022-11-04T02:51:59.972Z,981.76
2022-11-04T02:52:59.962Z,981.79
2022-11-04T02:53:59.973Z,981.72
2022-11-04T02:55:01.415Z,981.71
2022-11-04T02:55:59.941Z,981.77
2022-11-04T02:57:00.854Z,981.84
2022-11-04T02:57:59.917Z,981.89
2022-11-04T02:58:59.902Z,981.93
2022-11-04T02:59:59.907Z,981.94
2022-11-04T03:00:59.962Z,981.83
2022-11-04T03:01:59.996Z,981.90
2022-11-04T03:02:59.882Z,981.90
2022-11-04T03:03:59.885Z,981.92
2022-11-04T03:04:59.959Z,981.98
2022-11-04T03:05:59.856Z,981.97
2022-11-04T03:06:59.908Z,982.08
2022-11-04T03:07:59.938Z,982.06
2022-11-04T03:08:59.830Z,982.08
2022-11-04T03:09:59.861Z,981.92
2022-11-04T03:10:59.924Z,981.97
2022-11-04T03:11:59.819Z,981.98
2022-11-04T03:12:59.810Z,981.98
2022-11-04T03:13:59.803Z,981.90
2022-11-04T03:14:59.814Z,981.94
2022-11-04T03:15:59.783Z,982.02
2022-11-04T03:16:59.775Z,982.00
2022-11-04T03:17:59.775Z,982.05
2022-11-04T03:19:01.018Z,982.13
2022-11-04T03:19:59.765Z,982.16
2022-11-04T03:20:59.753Z,982.14
2022-11-04T03:21:59.755Z,982.13
2022-11-04T03:22:59.797Z,982.12
2022-11-04T03:24:00.494Z,982.12
2022-11-04T03:24:59.715Z,982.04
2022-11-04T03:25:59.741Z,982.11
2022-11-04T03:26:59.705Z,982.11
2022-11-04T03:27:59.701Z,982.16
2022-11-04T03:29:00.136Z,982.05
2022-11-04T03:29:59.683Z,982.06
2022-11-04T03:30:59.678Z,982.03
2022-11-04T03:31:59.668Z,982.00
2022-11-04T03:32:59.658Z,982.03
2022-11-04T03:33:59.712Z,982.03
2022-11-04T03:34:59.986Z,982.04
2022-11-04T03:35:59.633Z,982.03
2022-11-04T03:36:59.630Z,982.09
2022-11-04T03:37:59.623Z,982.07
2022-11-04T03:38:59.606Z,982.06
2022-11-04T03:39:59.623Z,982.07
2022-11-04T03:40:59.604Z,982.05
2022-11-04T03:41:59.628Z,982.08
2022-11-04T03:42:59.608Z,982.17
2022-11-04T03:43:59.587Z,982.16
2022-11-04T03:44:59.566Z,982.15
2022-11-04T03:45:59.564Z,982.15
2022-11-04T03:46:59.551Z,982.07
2022-11-04T03:47:59.951Z,982.17
2022-11-04T03:48:59.542Z,982.26
2022-11-04T03:49:59.963Z,982.25
2022-11-04T03:50:59.520Z,982.26
2022-11-04T03:51:59.520Z,982.31
2022-11-04T03:52:59.517Z,982.27
2022-11-04T03:53:59.524Z,982.38
2022-11-04T03:54:59.510Z,982.31
2022-11-04T03:55:59.504Z,982.41
2022-11-04T03:56:59.475Z,982.32
2022-11-04T03:57:59.500Z,982.40
2022-11-04T03:58:59.472Z,982.43
2022-11-04T03:59:59.473Z,982.36
2022-11-04T04:00:59.480Z,982.41
2022-11-04T04:01:59.533Z,982.39
2022-11-04T04:02:59.440Z,982.37
2022-11-04T04:03:59.455Z,982.36
2022-11-04T04:04:59.418Z,982.43
2022-11-04T04:05:59.424Z,982.44
2022-11-04T04:06:59.409Z,982.48
2022-11-04T04:07:59.402Z,982.51
2022-11-04T04:08:59.812Z,982.55
2022-11-04T04:09:59.391Z,982.57
2022-11-04T04:10:59.374Z,982.57
2022-11-04T04:11:59.377Z,982.61
2022-11-04T04:12:59.371Z,982.65
2022-11-04T04:13:59.377Z,982.60
2022-11-04T04:14:59.363Z,982.61
2022-11-04T04:15:59.342Z,982.60
2022-11-04T04:16:59.414Z,982.62
2022-11-04T04:17:59.339Z,982.59
2022-11-04T04:18:59.319Z,982.60
2022-11-04T04:19:59.750Z,982.67
2022-11-04T04:20:59.309Z,982.70
2022-11-04T04:21:59.299Z,982.62
2022-11-04T04:22:59.300Z,982.61
2022-11-04T04:23:59.286Z,982.63
2022-11-04T04:24:59.352Z,982.67
2022-11-04T04:25:59.279Z,982.74
2022-11-04T04:26:59.268Z,982.74
2022-11-04T04:27:59.262Z,982.81
2022-11-04T04:28:59.257Z,982.85
2022-11-04T04:30:00.750Z,982.86
2022-11-04T04:31:00.289Z,982.84
2022-11-04T04:31:59.233Z,982.84
2022-11-04T04:32:59.219Z,982.81
2022-11-04T04:33:59.230Z,982.82
2022-11-04T04:34:59.210Z,982.91
2022-11-04T04:35:59.212Z,982.97
2022-11-04T04:36:59.203Z,983.02
2022-11-04T04:37:59.185Z,983.04
2022-11-04T04:38:59.179Z,983.03
2022-11-04T04:39:59.191Z,983.05
2022-11-04T04:41:59.161Z,982.82
2022-11-04T04:42:59.152Z,982.79
2022-11-04T04:43:59.141Z,982.72
2022-11-04T04:44:59.146Z,982.74
2022-11-04T04:45:59.152Z,982.83
2022-11-04T04:46:59.131Z,982.92
2022-11-04T04:47:59.125Z,982.92
2022-11-04T04:48:59.113Z,982.93
2022-11-04T04:49:59.121Z,982.93
2022-11-04T04:50:59.100Z,982.95
2022-11-04T04:51:59.104Z,982.98
2022-11-04T04:52:59.092Z,982.89
2022-11-04T04:53:59.124Z,982.91
2022-11-04T04:54:59.070Z,982.83
2022-11-04T04:55:59.069Z,982.86
2022-11-04T04:56:59.061Z,982.88
2022-11-04T04:57:59.052Z,982.86
2022-11-04T04:58:59.049Z,982.79
2022-11-04T04:59:59.044Z,982.74
2022-11-04T05:00:59.093Z,982.79
2022-11-04T05:01:59.227Z,982.72
2022-11-04T05:02:59.013Z,982.77
2022-11-04T05:03:59.038Z,982.74
2022-11-04T05:04:59.016Z,982.82
2022-11-04T05:05:59.012Z,982.83
2022-11-04T05:06:58.997Z,982.82
2022-11-04T05:07:58.994Z,982.80
2022-11-04T05:08:58.978Z,982.81
2022-11-04T05:09:58.970Z,982.86
2022-11-04T05:10:58.982Z,982.94
2022-11-04T05:11:58.960Z,983.02
2022-11-04T05:12:58.967Z,983.08
2022-11-04T05:13:58.957Z,983.05
2022-11-04T05:14:58.941Z,983.08
2022-11-04T05:15:58.927Z,983.10
2022-11-04T05:16:58.929Z,983.04
2022-11-04T05:17:58.946Z,983.08
2022-11-04T05:18:59.583Z,983.06
2022-11-04T05:19:58.916Z,983.09
2022-11-04T05:20:58.906Z,983.07
2022-11-04T05:21:58.947Z,983.04
2022-11-04T05:22:58.879Z,983.08
2022-11-04T05:23:58.873Z,983.06
2022-11-04T05:24:58.896Z,983.07
2022-11-04T05:25:58.867Z,983.10
2022-11-04T05:26:58.855Z,983.14
2022-11-04T05:27:58.843Z,983.11
2022-11-04T05:28:58.867Z,983.21
2022-11-04T05:29:58.828Z,983.17
2022-11-04T05:30:58.830Z,983.17
2022-11-04T05:31:58.826Z,983.19
2022-11-04T05:33:01.772Z,983.22
2022-11-04T05:34:00.665Z,983.32
2022-11-04T05:34:58.828Z,983.27
2022-11-04T05:35:58.798Z,983.34
2022-11-04T05:36:58.797Z,983.45
2022-11-04T05:37:58.821Z,983.44
2022-11-04T05:38:58.778Z,983.52
2022-11-04T05:39:58.792Z,983.51
2022-11-04T05:40:59.175Z,983.52
2022-11-04T05:41:58.763Z,983.48
2022-11-04T05:42:58.751Z,983.47
2022-11-04T05:43:58.748Z,983.53
2022-11-04T05:44:58.733Z,983.53
2022-11-04T05:45:58.750Z,983.57
2022-11-04T05:46:58.725Z,983.58
2022-11-04T05:47:58.716Z,983.66
2022-11-04T05:48:58.722Z,983.66
2022-11-04T05:49:58.721Z,983.70
2022-11-04T05:50:58.705Z,983.71
2022-11-04T05:51:59.114Z,983.70
2022-11-04T05:52:58.680Z,983.80
2022-11-04T05:53:58.680Z,983.82
2022-11-04T05:54:58.667Z,983.82
2022-11-04T05:55:58.660Z,983.79
2022-11-04T05:56:58.723Z,983.85
2022-11-04T05:57:58.689Z,983.81
2022-11-04T05:58:58.671Z,983.83
2022-11-04T05:59:58.638Z,983.90
2022-11-04T06:00:58.636Z,983.89
2022-11-04T06:01:58.790Z,983.97
2022-11-04T06:02:58.715Z,983.88
2022-11-04T06:03:58.631Z,983.88
2022-11-04T06:04:59.217Z,983.83
2022-11-04T06:05:58.665Z,983.80
2022-11-04T06:06:58.590Z,983.73
2022-11-04T06:07:58.582Z,983.78
2022-11-04T06:08:58.675Z,983.77
2022-11-04T06:09:58.584Z,983.71
2022-11-04T06:10:58.564Z,983.74
2022-11-04T06:11:58.583Z,983.63
2022-11-04T06:12:58.545Z,983.72
2022-11-04T06:13:58.609Z,983.67
2022-11-04T06:14:58.544Z,983.62
2022-11-04T06:15:58.548Z,983.69
2022-11-04T06:16:58.613Z,983.69
2022-11-04T06:17:58.521Z,983.69
2022-11-04T06:19:01.641Z,983.74
2022-11-04T06:19:59.499Z,983.70
2022-11-04T06:20:59.306Z,983.71
2022-11-04T06:21:58.588Z,983.80
2022-11-04T06:22:58.525Z,983.78
2022-11-04T06:23:58.490Z,983.78
2022-11-04T06:24:58.475Z,983.77
2022-11-04T06:25:58.467Z,983.76
2022-11-04T06:26:58.453Z,983.78
2022-11-04T06:27:58.466Z,983.74
2022-11-04T06:28:58.490Z,983.78
2022-11-04T06:29:58.455Z,983.78
2022-11-04T06:30:58.459Z,983.79
2022-11-04T06:31:58.455Z,983.81
2022-11-04T06:32:58.908Z,983.76
2022-11-04T06:33:58.412Z,983.75
2022-11-04T06:34:58.413Z,983.67
2022-11-04T06:35:58.393Z,983.68
2022-11-04T06:36:58.432Z,983.74
2022-11-04T06:37:58.403Z,983.70
2022-11-04T06:39:04.137Z,983.71
2022-11-04T06:39:59.700Z,983.71
2022-11-04T06:40:58.867Z,983.78
2022-11-04T06:42:01.337Z,983.73
2022-11-04T06:42:58.347Z,983.79
2022-11-04T06:43:58.344Z,983.75
2022-11-04T06:44:58.341Z,983.77
2022-11-04T06:45:58.346Z,983.83
2022-11-04T06:46:58.347Z,983.82
2022-11-04T06:47:58.329Z,983.88
2022-11-04T06:48:58.315Z,983.87
2022-11-04T06:49:58.299Z,983.93
2022-11-04T06:50:58.292Z,983.94
2022-11-04T06:51:58.291Z,983.97
2022-11-04T06:52:58.302Z,983.94
2022-11-04T06:53:58.300Z,983.98
2022-11-04T06:54:58.293Z,983.99
2022-11-04T06:55:58.267Z,983.97
2022-11-04T06:56:58.264Z,983.95
2022-11-04T06:57:58.258Z,983.93
2022-11-04T06:58:58.412Z,983.95
2022-11-04T06:59:58.242Z,983.97
2022-11-04T07:00:58.293Z,983.98
2022-11-04T07:01:58.401Z,984.03
2022-11-04T07:02:58.263Z,984.02
2022-11-04T07:03:58.223Z,984.08
2022-11-04T07:05:58.206Z,984.08
2022-11-04T07:06:58.204Z,984.06
2022-11-04T07:07:58.607Z,984.14
2022-11-04T07:08:58.178Z,984.18
2022-11-04T07:09:58.213Z,984.18
2022-11-04T07:10:58.180Z,984.24
2022-11-04T07:11:58.150Z,984.27
2022-11-04T07:12:58.155Z,984.29
2022-11-04T07:13:58.136Z,984.31
2022-11-04T07:14:58.125Z,984.37
2022-11-04T07:15:58.120Z,984.35
2022-11-04T07:16:58.139Z,984.35
2022-11-04T07:17:58.113Z,984.32
2022-11-04T07:18:58.097Z,984.31
2022-11-04T07:19:58.103Z,984.30
2022-11-04T07:20:58.090Z,984.33
2022-11-04T07:21:58.555Z,984.29
2022-11-04T07:22:58.103Z,984.28
2022-11-04T07:23:58.070Z,984.34
2022-11-04T07:24:58.065Z,984.35
2022-11-04T07:25:58.084Z,984.31
2022-11-04T07:26:58.059Z,984.27
2022-11-04T07:28:01.141Z,984.28
2022-11-04T07:28:58.050Z,984.31
2022-11-04T07:29:58.676Z,984.37
2022-11-04T07:30:58.018Z,984.33
2022-11-04T07:31:58.014Z,984.31
2022-11-04T07:32:58.019Z,984.32
2022-11-04T07:33:57.996Z,984.32
2022-11-04T07:34:57.990Z,984.39
2022-11-04T07:35:58.603Z,984.31
2022-11-04T07:36:57.975Z,984.35
2022-11-04T07:37:58.055Z,984.36
2022-11-04T07:38:58.423Z,984.34
2022-11-04T07:39:57.971Z,984.43
2022-11-04T07:40:57.951Z,984.46
2022-11-04T07:41:59.668Z,984.45
2022-11-04T07:42:57.927Z,984.49
2022-11-04T07:43:57.923Z,984.51
2022-11-04T07:44:57.917Z,984.48
2022-11-04T07:45:57.951Z,984.49
2022-11-04T07:46:57.912Z,984.49
2022-11-04T07:47:57.943Z,984.53
2022-11-04T07:48:57.891Z,984.50
2022-11-04T07:49:57.980Z,984.51
2022-11-04T07:50:57.878Z,984.47
2022-11-04T07:51:57.865Z,984.48
2022-11-04T07:52:57.864Z,984.48
2022-11-04T07:53:57.854Z,984.42
2022-11-04T07:55:04.951Z,984.45
2022-11-04T07:55:57.841Z,984.47
2022-11-04T07:56:57.849Z,984.48
2022-11-04T07:57:57.953Z,984.52
2022-11-04T07:58:57.824Z,984.50
2022-11-04T07:59:57.810Z,984.51
2022-11-04T08:00:58.798Z,984.64
2022-11-04T08:01:58.031Z,984.59
2022-11-04T08:02:57.860Z,984.61
2022-11-04T08:03:57.779Z,984.53
2022-11-04T08:04:57.877Z,984.62
2022-11-04T08:05:57.819Z,984.68
2022-11-04T08:06:57.775Z,984.66
2022-11-04T08:07:57.783Z,984.68
2022-11-04T08:08:57.816Z,984.74
2022-11-04T08:09:57.791Z,984.74
2022-11-04T08:10:57.754Z,984.76
2022-11-04T08:11:57.785Z,984.77
2022-11-04T08:12:57.717Z,984.83
2022-11-04T08:13:57.748Z,984.86
2022-11-04T08:14:57.720Z,984.88
2022-11-04T08:15:57.711Z,984.81
2022-11-04T08:16:57.711Z,984.91
2022-11-04T08:17:57.725Z,984.93
2022-11-04T08:18:57.693Z,984.96
2022-11-04T08:19:57.687Z,984.95
2022-11-04T08:20:57.669Z,984.96
2022-11-04T08:21:58.077Z,984.88
2022-11-04T08:22:57.659Z,984.89
2022-11-04T08:23:57.648Z,984.93
2022-11-04T08:24:57.644Z,984.96
2022-11-04T08:25:57.631Z,984.96
2022-11-04T08:26:57.759Z,985.02
2022-11-04T08:28:00.876Z,985.00
2022-11-04T08:28:57.637Z,984.94
2022-11-04T08:29:57.666Z,984.96
2022-11-04T08:30:57.631Z,984.91
2022-11-04T08:31:57.623Z,984.90
2022-11-04T08:32:57.575Z,984.90
2022-11-04T08:33:58.320Z,984.91
2022-11-04T08:34:57.566Z,984.91
2022-11-04T08:35:57.618Z,984.94
2022-11-04T08:36:58.486Z,984.89
2022-11-04T08:37:57.587Z,984.89
2022-11-04T08:38:57.535Z,984.89
2022-11-04T08:39:58.201Z,984.88
2022-11-04T08:41:00.094Z,984.85
2022-11-04T08:41:57.539Z,984.88
2022-11-04T08:42:57.531Z,984.89
2022-11-04T08:43:57.522Z,984.91
2022-11-04T08:44:57.492Z,984.86
2022-11-04T08:45:57.500Z,984.85
2022-11-04T08:46:57.500Z,984.85
2022-11-04T08:48:01.370Z,984.82
2022-11-04T08:48:58.459Z,984.83
2022-11-04T08:49:57.478Z,984.87
2022-11-04T08:50:57.506Z,984.83
2022-11-04T08:51:57.453Z,984.89
2022-11-04T08:52:58.288Z,984.84
2022-11-04T08:53:57.445Z,984.87
2022-11-04T08:54:57.697Z,984.87
2022-11-04T08:55:57.406Z,984.81
2022-11-04T08:56:57.419Z,984.85
2022-11-04T08:57:57.452Z,984.87
2022-11-04T08:58:57.422Z,984.78
2022-11-04T08:59:57.373Z,984.87
2022-11-04T09:00:57.365Z,984.89
2022-11-04T09:01:57.645Z,984.87
2022-11-04T09:02:57.357Z,984.91
2022-11-04T09:03:57.953Z,984.91
2022-11-04T09:04:57.345Z,984.93
2022-11-04T09:05:57.358Z,984.91
2022-11-04T09:06:57.387Z,984.90
2022-11-04T09:07:57.350Z,984.87
2022-11-04T09:08:57.441Z,984.83
2022-11-04T09:09:57.403Z,984.84
2022-11-04T09:10:57.309Z,984.80
2022-11-04T09:11:57.322Z,984.84
2022-11-04T09:12:57.280Z,984.82
2022-11-04T09:13:57.289Z,984.84
2022-11-04T09:14:57.295Z,984.84
2022-11-04T09:15:57.427Z,984.74
2022-11-04T09:16:57.271Z,984.73
2022-11-04T09:17:57.378Z,984.73
2022-11-04T09:18:57.292Z,984.82
2022-11-04T09:19:57.253Z,984.75
2022-11-04T09:20:57.247Z,984.79
2022-11-04T09:21:57.278Z,984.78
2022-11-04T09:22:57.233Z,984.76
2022-11-04T09:23:57.235Z,984.72
2022-11-04T09:24:57.231Z,984.75
2022-11-04T09:25:57.199Z,984.70
2022-11-04T09:26:57.269Z,984.70
2022-11-04T09:27:57.178Z,984.71
2022-11-04T09:28:57.175Z,984.64
2022-11-04T09:29:57.189Z,984.64
2022-11-04T09:30:57.378Z,984.67
2022-11-04T09:31:57.154Z,984.61
2022-11-04T09:32:57.174Z,984.58
2022-11-04T09:33:57.293Z,984.62
2022-11-04T09:34:57.120Z,984.66
2022-11-04T09:35:57.140Z,984.72
2022-11-04T09:36:57.135Z,984.75
2022-11-04T09:37:57.162Z,984.83
2022-11-04T09:38:57.093Z,984.80
2022-11-04T09:39:57.101Z,984.80
2022-11-04T09:40:57.076Z,984.88
2022-11-04T09:41:57.077Z,984.79
2022-11-04T09:42:57.129Z,984.78
2022-11-04T09:43:57.071Z,984.84
2022-11-04T09:45:20.559Z,984.83
2022-11-04T09:45:58.044Z,984.89
2022-11-04T09:46:57.063Z,984.89
2022-11-04T09:47:57.884Z,984.95
2022-11-04T09:48:57.039Z,985.04
2022-11-04T09:49:57.153Z,985.03
2022-11-04T09:50:57.015Z,984.97
2022-11-04T09:51:57.008Z,985.10
2022-11-04T09:52:57.103Z,985.16
2022-11-04T09:53:56.993Z,985.20
2022-11-04T09:54:57.647Z,985.16
2022-11-04T09:55:57.427Z,985.18
2022-11-04T09:56:57.041Z,985.15
2022-11-04T09:57:57.083Z,985.11
2022-11-04T09:58:57.441Z,985.24
2022-11-04T09:59:57.065Z,985.18
2022-11-04T10:00:56.998Z,985.20
2022-11-04T10:01:57.095Z,985.15
2022-11-04T10:02:56.939Z,985.20
2022-11-04T10:03:56.934Z,985.16
2022-11-04T10:04:56.911Z,985.25
2022-11-04T10:05:57.009Z,985.16
2022-11-04T10:06:56.986Z,985.13
2022-11-04T10:07:57.677Z,985.08
2022-11-04T10:08:56.906Z,985.07
2022-11-04T10:09:56.996Z,985.05
2022-11-04T10:10:56.907Z,985.06
2022-11-04T10:11:56.855Z,985.13
2022-11-04T10:12:56.863Z,985.12
2022-11-04T10:13:56.873Z,985.12
2022-11-04T10:14:57.630Z,985.11
2022-11-04T10:15:56.839Z,985.09
2022-11-04T10:16:56.831Z,985.10
2022-11-04T10:17:56.886Z,985.09
2022-11-04T10:18:56.846Z,985.13
2022-11-04T10:19:56.815Z,985.07
2022-11-04T10:20:56.790Z,985.07
2022-11-04T10:21:56.944Z,985.12
2022-11-04T10:22:56.772Z,985.08
2022-11-04T10:23:57.726Z,985.04
2022-11-04T10:24:56.790Z,984.99
2022-11-04T10:25:56.834Z,985.04
2022-11-04T10:27:00.462Z,984.96
2022-11-04T10:27:56.890Z,984.94
2022-11-04T10:28:57.146Z,984.89
2022-11-04T10:29:56.787Z,984.92
2022-11-04T10:30:56.739Z,984.84
2022-11-04T10:31:56.930Z,984.78
2022-11-04T10:32:56.733Z,984.76
2022-11-04T10:33:56.704Z,984.79
2022-11-04T10:34:56.729Z,984.73
2022-11-04T10:35:56.796Z,984.73
2022-11-04T10:36:56.703Z,984.65
2022-11-04T10:37:56.779Z,984.65
2022-11-04T10:38:56.689Z,984.67
2022-11-04T10:39:56.786Z,984.64
2022-11-04T10:40:56.664Z,984.65
2022-11-04T10:41:56.654Z,984.67
2022-11-04T10:42:56.651Z,984.66
2022-11-04T10:43:57.221Z,984.65
2022-11-04T10:44:56.629Z,984.63
2022-11-04T10:45:56.708Z,984.56
2022-11-04T10:46:57.667Z,984.62
2022-11-04T10:47:56.602Z,984.64
2022-11-04T10:48:56.595Z,984.64
2022-11-04T10:50:26.608Z,984.58
2022-11-04T10:50:57.658Z,984.53
2022-11-04T10:51:56.576Z,984.52
2022-11-04T10:52:56.565Z,984.60
2022-11-04T10:53:56.735Z,984.55
2022-11-04T10:54:56.667Z,984.55
2022-11-04T10:55:56.640Z,984.60
2022-11-04T10:56:56.675Z,984.55
2022-11-04T10:57:56.518Z,984.63
2022-11-04T10:58:56.548Z,984.60
2022-11-04T10:59:56.569Z,984.59
2022-11-04T11:00:56.606Z,984.60
2022-11-04T11:01:56.776Z,984.62
2022-11-04T11:02:56.493Z,984.55
2022-11-04T11:03:56.481Z,984.53
2022-11-04T11:04:56.499Z,984.55
2022-11-04T11:05:56.529Z,984.55
2022-11-04T11:06:56.460Z,984.56
2022-11-04T11:07:56.440Z,984.57
2022-11-04T11:08:56.465Z,984.54
2022-11-04T11:09:56.457Z,984.59
2022-11-04T11:10:56.432Z,984.61
2022-11-04T11:11:56.424Z,984.59
2022-11-04T11:12:58.087Z,984.65
2022-11-04T11:13:56.517Z,984.63
2022-11-04T11:14:56.439Z,984.66
2022-11-04T11:15:56.453Z,984.63
2022-11-04T11:16:57.189Z,984.62
2022-11-04T11:17:56.409Z,984.60
2022-11-04T11:18:56.390Z,984.70
2022-11-04T11:19:56.387Z,984.69
2022-11-04T11:20:56.359Z,984.75
2022-11-04T11:21:56.432Z,984.77
2022-11-04T11:23:00.478Z,984.67
2022-11-04T11:23:57.351Z,984.66
2022-11-04T11:24:56.345Z,984.66
2022-11-04T11:25:56.419Z,984.62
2022-11-04T11:26:56.317Z,984.57
2022-11-04T11:27:56.747Z,984.57
2022-11-04T11:28:59.222Z,984.52
2022-11-04T11:29:56.314Z,984.63
2022-11-04T11:30:56.272Z,984.62
2022-11-04T11:31:57.125Z,984.60
2022-11-04T11:32:56.284Z,984.53
2022-11-04T11:33:56.285Z,984.61
2022-11-04T11:34:56.270Z,984.56
2022-11-04T11:35:56.259Z,984.56
2022-11-04T11:36:56.250Z,984.47
2022-11-04T11:37:56.233Z,984.56
2022-11-04T11:38:56.216Z,984.51
2022-11-04T11:39:56.215Z,984.52
2022-11-04T11:41:23.429Z,984.53
2022-11-04T11:41:57.234Z,984.49
2022-11-04T11:42:56.681Z,984.49
2022-11-04T11:43:56.272Z,984.48
2022-11-04T11:44:56.176Z,984.40
2022-11-04T11:45:56.186Z,984.43
2022-11-04T11:46:56.163Z,984.46
2022-11-04T11:47:56.164Z,984.50
2022-11-04T11:48:56.163Z,984.54
2022-11-04T11:49:56.911Z,984.48
2022-11-04T11:50:56.143Z,984.47
2022-11-04T11:51:56.192Z,984.49
2022-11-04T11:52:56.125Z,984.48
2022-11-04T11:53:56.117Z,984.60
2022-11-04T11:54:56.105Z,984.51
2022-11-04T11:55:56.958Z,984.48
2022-11-04T11:57:13.277Z,984.46
2022-11-04T12:01:03.532Z,984.50
2022-11-04T12:01:57.193Z,984.45
2022-11-04T12:02:56.490Z,984.39
2022-11-04T12:09:57.018Z,984.49
2022-11-04T12:10:56.146Z,984.48
2022-11-04T12:11:55.988Z,984.49
2022-11-04T12:12:55.970Z,984.45
2022-11-04T12:13:55.987Z,984.49
2022-11-04T12:14:56.171Z,984.47
2022-11-04T12:15:55.961Z,984.42
2022-11-04T12:16:55.970Z,984.39
2022-11-04T12:17:56.015Z,984.42
2022-11-04T12:18:55.933Z,984.42
2022-11-04T12:19:55.922Z,984.37
2022-11-04T12:20:55.915Z,984.40
2022-11-04T12:21:55.918Z,984.41
2022-11-04T12:22:56.557Z,984.46
2022-11-04T12:23:56.742Z,984.47
2022-11-04T12:24:55.893Z,984.39
2022-11-04T12:25:55.887Z,984.45
2022-11-04T12:26:55.864Z,984.37
2022-11-04T12:27:55.878Z,984.47
2022-11-04T12:28:55.908Z,984.39
2022-11-04T12:29:55.889Z,984.41
2022-11-04T12:30:55.890Z,984.43
2022-11-04T12:31:56.017Z,984.45
2022-11-04T12:32:55.847Z,984.41
2022-11-04T12:33:55.878Z,984.38
2022-11-04T12:34:57.273Z,984.39
2022-11-04T12:35:55.873Z,984.42
2022-11-04T12:36:55.875Z,984.47
2022-11-04T12:37:55.916Z,984.40
2022-11-04T12:38:55.781Z,984.37